sensor_id;sensor_type;location;lat;lon;timestamp;P1;durP1;ratioP1;P2;durP2;ratioP2
28762;SDS011;15918;51.270;6.522;2024-03-08T00:00:26;26.48;;;20.63;;
28762;SDS011;15918;51.270;6.522;2024-03-08T00:02:52;23.88;;;21.35;;
28762;SDS011;15918;51.270;6.522;2024-03-08T00:05:19;23.15;;;20.80;;
28762;SDS011;15918;51.270;6.522;2024-03-08T00:07:44;23.05;;;20.65;;
28762;SDS011;15918;51.270;6.522;2024-03-08T00:10:11;25.77;;;22.48;;
28762;SDS011;15918;51.270;6.522;2024-03-08T00:12:40;24.05;;;21.48;;
28762;SDS011;15918;51.270;6.522;2024-03-08T00:15:10;24.40;;;21.85;;
28762;SDS011;15918;51.270;6.522;2024-03-08T00:17:38;24.92;;;22.05;;
28762;SDS011;15918;51.270;6.522;2024-03-08T00:20:07;24.48;;;22.00;;
28762;SDS011;15918;51.270;6.522;2024-03-08T00:22:37;24.40;;;21.80;;
28762;SDS011;15918;51.270;6.522;2024-03-08T00:25:03;25.08;;;22.25;;
28762;SDS011;15918;51.270;6.522;2024-03-08T00:27:30;24.63;;;22.13;;
28762;SDS011;15918;51.270;6.522;2024-03-08T00:29:56;25.20;;;22.58;;
28762;SDS011;15918;51.270;6.522;2024-03-08T00:32:22;24.67;;;22.17;;
28762;SDS011;15918;51.270;6.522;2024-03-08T00:34:52;24.70;;;22.02;;
28762;SDS011;15918;51.270;6.522;2024-03-08T00:37:19;24.80;;;22.15;;
28762;SDS011;15918;51.270;6.522;2024-03-08T00:39:48;24.80;;;22.00;;
28762;SDS011;15918;51.270;6.522;2024-03-08T00:42:17;23.95;;;21.55;;
28762;SDS011;15918;51.270;6.522;2024-03-08T00:44:43;24.33;;;21.92;;
28762;SDS011;15918;51.270;6.522;2024-03-08T00:47:09;25.40;;;22.70;;
28762;SDS011;15918;51.270;6.522;2024-03-08T00:49:35;23.65;;;21.08;;
28762;SDS011;15918;51.270;6.522;2024-03-08T00:52:04;25.65;;;22.92;;
28762;SDS011;15918;51.270;6.522;2024-03-08T00:54:33;24.45;;;21.95;;
28762;SDS011;15918;51.270;6.522;2024-03-08T00:57:00;24.75;;;22.05;;
28762;SDS011;15918;51.270;6.522;2024-03-08T00:59:27;25.75;;;23.02;;
28762;SDS011;15918;51.270;6.522;2024-03-08T01:01:53;25.65;;;23.05;;
28762;SDS011;15918;51.270;6.522;2024-03-08T01:04:19;25.55;;;22.85;;
28762;SDS011;15918;51.270;6.522;2024-03-08T01:06:46;24.73;;;22.13;;
28762;SDS011;15918;51.270;6.522;2024-03-08T01:09:12;23.67;;;21.38;;
28762;SDS011;15918;51.270;6.522;2024-03-08T01:11:38;24.92;;;22.45;;
28762;SDS011;15918;51.270;6.522;2024-03-08T01:14:04;25.75;;;23.15;;
28762;SDS011;15918;51.270;6.522;2024-03-08T01:16:30;24.15;;;21.65;;
28762;SDS011;15918;51.270;6.522;2024-03-08T01:18:58;23.75;;;21.30;;
28762;SDS011;15918;51.270;6.522;2024-03-08T01:21:23;24.95;;;22.48;;
28762;SDS011;15918;51.270;6.522;2024-03-08T01:23:49;24.02;;;21.63;;
28762;SDS011;15918;51.270;6.522;2024-03-08T01:26:15;25.75;;;23.15;;
28762;SDS011;15918;51.270;6.522;2024-03-08T01:28:41;24.52;;;22.02;;
28762;SDS011;15918;51.270;6.522;2024-03-08T01:31:06;26.17;;;22.50;;
28762;SDS011;15918;51.270;6.522;2024-03-08T01:33:32;24.55;;;22.02;;
28762;SDS011;15918;51.270;6.522;2024-03-08T01:35:58;25.92;;;22.90;;
28762;SDS011;15918;51.270;6.522;2024-03-08T01:38:23;24.15;;;21.65;;
28762;SDS011;15918;51.270;6.522;2024-03-08T01:40:49;24.73;;;22.33;;
28762;SDS011;15918;51.270;6.522;2024-03-08T01:43:19;25.52;;;22.80;;
28762;SDS011;15918;51.270;6.522;2024-03-08T01:45:46;26.58;;;22.77;;
28762;SDS011;15918;51.270;6.522;2024-03-08T01:48:13;24.25;;;21.85;;
28762;SDS011;15918;51.270;6.522;2024-03-08T01:50:40;25.73;;;23.13;;
28762;SDS011;15918;51.270;6.522;2024-03-08T01:53:06;26.52;;;23.80;;
28762;SDS011;15918;51.270;6.522;2024-03-08T01:55:35;25.73;;;23.13;;
28762;SDS011;15918;51.270;6.522;2024-03-08T01:58:02;25.55;;;22.98;;
28762;SDS011;15918;51.270;6.522;2024-03-08T02:00:30;26.23;;;23.70;;
28762;SDS011;15918;51.270;6.522;2024-03-08T02:02:57;24.38;;;22.00;;
28762;SDS011;15918;51.270;6.522;2024-03-08T02:05:24;26.70;;;23.88;;
28762;SDS011;15918;51.270;6.522;2024-03-08T02:07:50;26.23;;;23.63;;
28762;SDS011;15918;51.270;6.522;2024-03-08T02:10:16;26.48;;;23.85;;
28762;SDS011;15918;51.270;6.522;2024-03-08T02:12:42;26.63;;;23.92;;
28762;SDS011;15918;51.270;6.522;2024-03-08T02:15:09;26.88;;;24.17;;
28762;SDS011;15918;51.270;6.522;2024-03-08T02:17:35;28.35;;;24.45;;
28762;SDS011;15918;51.270;6.522;2024-03-08T02:20:01;26.77;;;24.30;;
28762;SDS011;15918;51.270;6.522;2024-03-08T02:22:28;27.25;;;24.45;;
28762;SDS011;15918;51.270;6.522;2024-03-08T02:24:55;27.98;;;24.27;;
28762;SDS011;15918;51.270;6.522;2024-03-08T02:27:24;28.58;;;25.70;;
28762;SDS011;15918;51.270;6.522;2024-03-08T02:29:50;26.20;;;23.70;;
28762;SDS011;15918;51.270;6.522;2024-03-08T02:32:21;28.00;;;25.20;;
28762;SDS011;15918;51.270;6.522;2024-03-08T02:34:49;30.75;;;24.45;;
28762;SDS011;15918;51.270;6.522;2024-03-08T02:37:15;28.55;;;25.63;;
28762;SDS011;15918;51.270;6.522;2024-03-08T02:39:42;27.63;;;24.92;;
28762;SDS011;15918;51.270;6.522;2024-03-08T02:42:08;27.48;;;24.75;;
28762;SDS011;15918;51.270;6.522;2024-03-08T02:44:33;28.42;;;25.52;;
28762;SDS011;15918;51.270;6.522;2024-03-08T02:46:59;28.38;;;25.42;;
28762;SDS011;15918;51.270;6.522;2024-03-08T02:49:25;28.48;;;25.58;;
28762;SDS011;15918;51.270;6.522;2024-03-08T02:51:54;28.33;;;25.42;;
28762;SDS011;15918;51.270;6.522;2024-03-08T02:54:22;29.05;;;25.33;;
28762;SDS011;15918;51.270;6.522;2024-03-08T02:56:49;29.02;;;26.08;;
28762;SDS011;15918;51.270;6.522;2024-03-08T02:59:17;28.05;;;25.23;;
28762;SDS011;15918;51.270;6.522;2024-03-08T03:01:43;29.90;;;26.67;;
28762;SDS011;15918;51.270;6.522;2024-03-08T03:04:09;28.48;;;25.48;;
28762;SDS011;15918;51.270;6.522;2024-03-08T03:06:35;29.35;;;26.27;;
28762;SDS011;15918;51.270;6.522;2024-03-08T03:09:00;29.50;;;26.45;;
28762;SDS011;15918;51.270;6.522;2024-03-08T03:11:27;29.42;;;26.15;;
28762;SDS011;15918;51.270;6.522;2024-03-08T03:13:52;31.00;;;26.45;;
28762;SDS011;15918;51.270;6.522;2024-03-08T03:16:21;29.70;;;26.50;;
28762;SDS011;15918;51.270;6.522;2024-03-08T03:18:47;29.70;;;26.65;;
28762;SDS011;15918;51.270;6.522;2024-03-08T03:21:13;29.33;;;26.25;;
28762;SDS011;15918;51.270;6.522;2024-03-08T03:23:39;28.88;;;25.98;;
28762;SDS011;15918;51.270;6.522;2024-03-08T03:26:06;29.58;;;26.60;;
28762;SDS011;15918;51.270;6.522;2024-03-08T03:28:37;28.52;;;25.67;;
28762;SDS011;15918;51.270;6.522;2024-03-08T03:31:05;28.63;;;25.73;;
28762;SDS011;15918;51.270;6.522;2024-03-08T03:33:31;27.73;;;24.92;;
28762;SDS011;15918;51.270;6.522;2024-03-08T03:35:59;28.17;;;25.27;;
28762;SDS011;15918;51.270;6.522;2024-03-08T03:38:26;29.33;;;26.23;;
28762;SDS011;15918;51.270;6.522;2024-03-08T03:40:52;29.50;;;26.52;;
28762;SDS011;15918;51.270;6.522;2024-03-08T03:43:22;30.92;;;27.00;;
28762;SDS011;15918;51.270;6.522;2024-03-08T03:45:48;28.75;;;25.85;;
28762;SDS011;15918;51.270;6.522;2024-03-08T03:48:13;29.90;;;26.90;;
28762;SDS011;15918;51.270;6.522;2024-03-08T03:50:39;29.50;;;26.58;;
28762;SDS011;15918;51.270;6.522;2024-03-08T03:53:05;29.23;;;26.38;;
28762;SDS011;15918;51.270;6.522;2024-03-08T03:55:34;28.85;;;25.98;;
28762;SDS011;15918;51.270;6.522;2024-03-08T03:58:01;29.90;;;26.90;;
28762;SDS011;15918;51.270;6.522;2024-03-08T04:00:27;30.42;;;27.15;;
28762;SDS011;15918;51.270;6.522;2024-03-08T04:02:53;30.10;;;26.98;;
28762;SDS011;15918;51.270;6.522;2024-03-08T04:05:20;28.27;;;25.55;;
28762;SDS011;15918;51.270;6.522;2024-03-08T04:07:46;30.45;;;27.23;;
28762;SDS011;15918;51.270;6.522;2024-03-08T04:10:11;29.45;;;26.55;;
28762;SDS011;15918;51.270;6.522;2024-03-08T04:12:37;29.08;;;26.27;;
28762;SDS011;15918;51.270;6.522;2024-03-08T04:15:03;28.67;;;25.75;;
28762;SDS011;15918;51.270;6.522;2024-03-08T04:17:32;29.65;;;26.50;;
28762;SDS011;15918;51.270;6.522;2024-03-08T04:20:02;30.23;;;27.25;;
28762;SDS011;15918;51.270;6.522;2024-03-08T04:22:37;31.42;;;28.23;;
28762;SDS011;15918;51.270;6.522;2024-03-08T04:25:04;31.63;;;28.27;;
28762;SDS011;15918;51.270;6.522;2024-03-08T04:27:31;31.88;;;28.73;;
28762;SDS011;15918;51.270;6.522;2024-03-08T04:29:58;30.42;;;27.42;;
28762;SDS011;15918;51.270;6.522;2024-03-08T04:32:24;30.88;;;27.75;;
28762;SDS011;15918;51.270;6.522;2024-03-08T04:34:50;29.52;;;26.52;;
28762;SDS011;15918;51.270;6.522;2024-03-08T04:37:15;30.92;;;27.83;;
28762;SDS011;15918;51.270;6.522;2024-03-08T04:39:46;31.40;;;28.35;;
28762;SDS011;15918;51.270;6.522;2024-03-08T04:42:11;31.30;;;28.00;;
28762;SDS011;15918;51.270;6.522;2024-03-08T04:44:38;31.83;;;28.58;;
28762;SDS011;15918;51.270;6.522;2024-03-08T04:47:04;30.75;;;27.55;;
28762;SDS011;15918;51.270;6.522;2024-03-08T04:49:33;30.40;;;27.42;;
28762;SDS011;15918;51.270;6.522;2024-03-08T04:52:05;31.83;;;28.42;;
28762;SDS011;15918;51.270;6.522;2024-03-08T04:54:31;32.05;;;28.73;;
28762;SDS011;15918;51.270;6.522;2024-03-08T04:56:57;30.33;;;27.33;;
28762;SDS011;15918;51.270;6.522;2024-03-08T04:59:25;30.75;;;27.75;;
28762;SDS011;15918;51.270;6.522;2024-03-08T05:01:52;32.33;;;29.05;;
28762;SDS011;15918;51.270;6.522;2024-03-08T05:04:17;31.20;;;28.00;;
28762;SDS011;15918;51.270;6.522;2024-03-08T05:06:43;31.55;;;28.38;;
28762;SDS011;15918;51.270;6.522;2024-03-08T05:09:09;33.15;;;29.85;;
28762;SDS011;15918;51.270;6.522;2024-03-08T05:11:41;31.17;;;28.08;;
28762;SDS011;15918;51.270;6.522;2024-03-08T05:14:10;33.10;;;29.63;;
28762;SDS011;15918;51.270;6.522;2024-03-08T05:16:41;30.73;;;27.52;;
28762;SDS011;15918;51.270;6.522;2024-03-08T05:19:19;32.35;;;28.95;;
28762;SDS011;15918;51.270;6.522;2024-03-08T05:21:48;30.48;;;27.42;;
28762;SDS011;15918;51.270;6.522;2024-03-08T05:24:15;32.42;;;27.58;;
28762;SDS011;15918;51.270;6.522;2024-03-08T05:26:41;31.65;;;28.25;;
28762;SDS011;15918;51.270;6.522;2024-03-08T05:29:07;31.77;;;28.67;;
28762;SDS011;15918;51.270;6.522;2024-03-08T05:34:13;31.95;;;28.75;;
28762;SDS011;15918;51.270;6.522;2024-03-08T05:36:39;33.05;;;29.27;;
28762;SDS011;15918;51.270;6.522;2024-03-08T05:39:09;31.90;;;28.73;;
28762;SDS011;15918;51.270;6.522;2024-03-08T05:41:36;33.22;;;29.77;;
28762;SDS011;15918;51.270;6.522;2024-03-08T05:44:03;33.10;;;29.80;;
28762;SDS011;15918;51.270;6.522;2024-03-08T05:46:28;33.20;;;29.83;;
28762;SDS011;15918;51.270;6.522;2024-03-08T05:48:54;32.55;;;29.15;;
28762;SDS011;15918;51.270;6.522;2024-03-08T05:51:19;31.98;;;28.58;;
28762;SDS011;15918;51.270;6.522;2024-03-08T05:53:46;31.75;;;28.48;;
28762;SDS011;15918;51.270;6.522;2024-03-08T05:56:12;31.08;;;27.95;;
28762;SDS011;15918;51.270;6.522;2024-03-08T05:58:37;32.38;;;29.08;;
28762;SDS011;15918;51.270;6.522;2024-03-08T06:01:03;32.97;;;29.58;;
28762;SDS011;15918;51.270;6.522;2024-03-08T06:03:32;37.65;;;31.58;;
28762;SDS011;15918;51.270;6.522;2024-03-08T06:05:59;32.45;;;29.10;;
28762;SDS011;15918;51.270;6.522;2024-03-08T06:08:24;32.85;;;29.63;;
28762;SDS011;15918;51.270;6.522;2024-03-08T06:10:55;33.95;;;30.48;;
28762;SDS011;15918;51.270;6.522;2024-03-08T06:13:21;34.33;;;30.85;;
28762;SDS011;15918;51.270;6.522;2024-03-08T06:15:46;32.92;;;29.63;;
28762;SDS011;15918;51.270;6.522;2024-03-08T06:18:12;34.75;;;31.15;;
28762;SDS011;15918;51.270;6.522;2024-03-08T06:20:38;32.90;;;29.45;;
28762;SDS011;15918;51.270;6.522;2024-03-08T06:23:03;32.60;;;29.17;;
28762;SDS011;15918;51.270;6.522;2024-03-08T06:25:29;32.75;;;29.40;;
28762;SDS011;15918;51.270;6.522;2024-03-08T06:27:54;35.22;;;30.90;;
28762;SDS011;15918;51.270;6.522;2024-03-08T06:30:20;33.58;;;30.27;;
28762;SDS011;15918;51.270;6.522;2024-03-08T06:32:46;34.88;;;31.30;;
28762;SDS011;15918;51.270;6.522;2024-03-08T06:35:12;33.38;;;29.88;;
28762;SDS011;15918;51.270;6.522;2024-03-08T06:37:37;35.30;;;31.52;;
28762;SDS011;15918;51.270;6.522;2024-03-08T06:40:03;34.25;;;30.92;;
28762;SDS011;15918;51.270;6.522;2024-03-08T06:42:29;37.20;;;32.80;;
28762;SDS011;15918;51.270;6.522;2024-03-08T06:44:58;36.78;;;31.35;;
28762;SDS011;15918;51.270;6.522;2024-03-08T06:47:29;35.00;;;31.02;;
28762;SDS011;15918;51.270;6.522;2024-03-08T06:49:55;35.00;;;31.10;;
28762;SDS011;15918;51.270;6.522;2024-03-08T06:52:20;38.35;;;31.33;;
28762;SDS011;15918;51.270;6.522;2024-03-08T06:54:47;36.75;;;33.03;;
28762;SDS011;15918;51.270;6.522;2024-03-08T06:57:13;36.10;;;32.33;;
28762;SDS011;15918;51.270;6.522;2024-03-08T06:59:39;35.22;;;31.58;;
28762;SDS011;15918;51.270;6.522;2024-03-08T07:02:05;34.45;;;30.85;;
28762;SDS011;15918;51.270;6.522;2024-03-08T07:04:34;35.10;;;31.38;;
28762;SDS011;15918;51.270;6.522;2024-03-08T07:07:03;35.75;;;32.03;;
28762;SDS011;15918;51.270;6.522;2024-03-08T07:09:29;37.28;;;33.35;;
28762;SDS011;15918;51.270;6.522;2024-03-08T07:11:54;35.58;;;31.90;;
28762;SDS011;15918;51.270;6.522;2024-03-08T07:14:21;36.08;;;32.28;;
28762;SDS011;15918;51.270;6.522;2024-03-08T07:16:47;36.08;;;32.20;;
28762;SDS011;15918;51.270;6.522;2024-03-08T07:19:13;37.15;;;32.33;;
28762;SDS011;15918;51.270;6.522;2024-03-08T07:21:39;38.60;;;33.45;;
28762;SDS011;15918;51.270;6.522;2024-03-08T07:24:04;40.05;;;33.58;;
28762;SDS011;15918;51.270;6.522;2024-03-08T07:26:43;36.70;;;32.67;;
28762;SDS011;15918;51.270;6.522;2024-03-08T07:29:09;37.00;;;32.65;;
28762;SDS011;15918;51.270;6.522;2024-03-08T07:31:34;36.67;;;32.45;;
28762;SDS011;15918;51.270;6.522;2024-03-08T07:34:15;37.92;;;33.20;;
28762;SDS011;15918;51.270;6.522;2024-03-08T07:36:41;37.65;;;32.58;;
28762;SDS011;15918;51.270;6.522;2024-03-08T07:39:07;35.72;;;31.35;;
28762;SDS011;15918;51.270;6.522;2024-03-08T07:41:37;37.65;;;33.60;;
28762;SDS011;15918;51.270;6.522;2024-03-08T07:44:05;37.28;;;32.47;;
28762;SDS011;15918;51.270;6.522;2024-03-08T07:46:31;37.53;;;33.30;;
28762;SDS011;15918;51.270;6.522;2024-03-08T07:48:59;39.35;;;33.88;;
28762;SDS011;15918;51.270;6.522;2024-03-08T07:51:25;37.50;;;33.80;;
28762;SDS011;15918;51.270;6.522;2024-03-08T07:53:50;37.60;;;33.38;;
28762;SDS011;15918;51.270;6.522;2024-03-08T07:56:16;39.45;;;33.88;;
28762;SDS011;15918;51.270;6.522;2024-03-08T07:58:43;38.00;;;33.95;;
28762;SDS011;15918;51.270;6.522;2024-03-08T08:01:18;36.60;;;32.70;;
28762;SDS011;15918;51.270;6.522;2024-03-08T08:03:45;38.90;;;34.73;;
28762;SDS011;15918;51.270;6.522;2024-03-08T08:06:11;39.00;;;34.83;;
28762;SDS011;15918;51.270;6.522;2024-03-08T08:08:43;39.65;;;35.45;;
28762;SDS011;15918;51.270;6.522;2024-03-08T08:11:10;36.17;;;32.28;;
28762;SDS011;15918;51.270;6.522;2024-03-08T08:13:40;36.03;;;32.28;;
28762;SDS011;15918;51.270;6.522;2024-03-08T08:16:08;37.58;;;33.67;;
28762;SDS011;15918;51.270;6.522;2024-03-08T08:18:34;37.10;;;33.05;;
28762;SDS011;15918;51.270;6.522;2024-03-08T08:21:01;38.05;;;33.80;;
28762;SDS011;15918;51.270;6.522;2024-03-08T08:23:27;36.50;;;32.80;;
28762;SDS011;15918;51.270;6.522;2024-03-08T08:25:53;35.85;;;32.05;;
28762;SDS011;15918;51.270;6.522;2024-03-08T08:28:20;37.78;;;32.28;;
28762;SDS011;15918;51.270;6.522;2024-03-08T08:30:46;40.83;;;34.78;;
28762;SDS011;15918;51.270;6.522;2024-03-08T08:33:12;37.03;;;32.97;;
28762;SDS011;15918;51.270;6.522;2024-03-08T08:35:38;37.92;;;31.45;;
28762;SDS011;15918;51.270;6.522;2024-03-08T08:38:04;34.58;;;30.90;;
28762;SDS011;15918;51.270;6.522;2024-03-08T08:40:30;34.83;;;31.20;;
28762;SDS011;15918;51.270;6.522;2024-03-08T08:42:57;34.78;;;31.10;;
28762;SDS011;15918;51.270;6.522;2024-03-08T08:45:23;33.00;;;29.60;;
28762;SDS011;15918;51.270;6.522;2024-03-08T08:47:48;37.50;;;29.63;;
28762;SDS011;15918;51.270;6.522;2024-03-08T08:50:14;33.25;;;29.38;;
28762;SDS011;15918;51.270;6.522;2024-03-08T08:52:41;37.28;;;30.80;;
28762;SDS011;15918;51.270;6.522;2024-03-08T08:55:09;32.80;;;29.23;;
28762;SDS011;15918;51.270;6.522;2024-03-08T08:57:39;32.50;;;29.00;;
28762;SDS011;15918;51.270;6.522;2024-03-08T09:00:06;30.67;;;27.55;;
28762;SDS011;15918;51.270;6.522;2024-03-08T09:02:39;33.67;;;27.35;;
28762;SDS011;15918;51.270;6.522;2024-03-08T09:05:06;31.10;;;27.90;;
28762;SDS011;15918;51.270;6.522;2024-03-08T09:07:33;33.83;;;28.63;;
28762;SDS011;15918;51.270;6.522;2024-03-08T09:09:59;34.97;;;25.92;;
28762;SDS011;15918;51.270;6.522;2024-03-08T09:12:25;27.67;;;24.98;;
28762;SDS011;15918;51.270;6.522;2024-03-08T09:14:51;27.65;;;24.73;;
28762;SDS011;15918;51.270;6.522;2024-03-08T09:17:17;28.75;;;24.88;;
28762;SDS011;15918;51.270;6.522;2024-03-08T09:19:46;27.85;;;23.60;;
28762;SDS011;15918;51.270;6.522;2024-03-08T09:22:12;27.05;;;24.20;;
28762;SDS011;15918;51.270;6.522;2024-03-08T09:24:38;28.15;;;24.38;;
28762;SDS011;15918;51.270;6.522;2024-03-08T09:27:04;27.17;;;23.75;;
28762;SDS011;15918;51.270;6.522;2024-03-08T09:29:29;25.10;;;22.25;;
28762;SDS011;15918;51.270;6.522;2024-03-08T09:31:55;25.55;;;22.85;;
28762;SDS011;15918;51.270;6.522;2024-03-08T09:34:21;26.60;;;22.67;;
28762;SDS011;15918;51.270;6.522;2024-03-08T09:36:46;25.08;;;22.45;;
28762;SDS011;15918;51.270;6.522;2024-03-08T09:39:12;25.25;;;22.70;;
28762;SDS011;15918;51.270;6.522;2024-03-08T09:41:44;25.83;;;23.05;;
28762;SDS011;15918;51.270;6.522;2024-03-08T09:44:13;24.15;;;21.58;;
28762;SDS011;15918;51.270;6.522;2024-03-08T09:46:39;24.60;;;22.00;;
28762;SDS011;15918;51.270;6.522;2024-03-08T09:49:05;23.33;;;20.67;;
28762;SDS011;15918;51.270;6.522;2024-03-08T09:51:33;23.60;;;21.13;;
28762;SDS011;15918;51.270;6.522;2024-03-08T09:54:03;24.25;;;21.42;;
28762;SDS011;15918;51.270;6.522;2024-03-08T09:56:33;23.90;;;21.40;;
28762;SDS011;15918;51.270;6.522;2024-03-08T09:59:00;23.88;;;21.38;;
28762;SDS011;15918;51.270;6.522;2024-03-08T10:01:45;23.33;;;21.00;;
28762;SDS011;15918;51.270;6.522;2024-03-08T10:04:11;23.48;;;20.85;;
28762;SDS011;15918;51.270;6.522;2024-03-08T10:06:38;23.20;;;20.90;;
28762;SDS011;15918;51.270;6.522;2024-03-08T10:09:04;23.77;;;20.70;;
28762;SDS011;15918;51.270;6.522;2024-03-08T10:11:32;24.83;;;22.17;;
28762;SDS011;15918;51.270;6.522;2024-03-08T10:13:59;29.00;;;23.02;;
28762;SDS011;15918;51.270;6.522;2024-03-08T10:16:27;23.13;;;20.73;;
28762;SDS011;15918;51.270;6.522;2024-03-08T10:18:53;26.13;;;21.40;;
28762;SDS011;15918;51.270;6.522;2024-03-08T10:21:21;22.50;;;20.25;;
28762;SDS011;15918;51.270;6.522;2024-03-08T10:23:47;24.45;;;21.02;;
28762;SDS011;15918;51.270;6.522;2024-03-08T10:26:14;23.33;;;20.58;;
28762;SDS011;15918;51.270;6.522;2024-03-08T10:28:46;22.60;;;20.20;;
28762;SDS011;15918;51.270;6.522;2024-03-08T10:31:16;23.60;;;21.08;;
28762;SDS011;15918;51.270;6.522;2024-03-08T10:33:43;23.77;;;21.00;;
28762;SDS011;15918;51.270;6.522;2024-03-08T10:36:09;22.92;;;20.23;;
28762;SDS011;15918;51.270;6.522;2024-03-08T10:38:39;24.05;;;20.23;;
28762;SDS011;15918;51.270;6.522;2024-03-08T10:41:06;21.45;;;19.35;;
28762;SDS011;15918;51.270;6.522;2024-03-08T10:49:26;23.25;;;20.48;;
28762;SDS011;15918;51.270;6.522;2024-03-08T10:52:04;20.98;;;18.73;;
28762;SDS011;15918;51.270;6.522;2024-03-08T10:54:33;22.05;;;19.25;;
28762;SDS011;15918;51.270;6.522;2024-03-08T10:56:59;23.63;;;21.23;;
28762;SDS011;15918;51.270;6.522;2024-03-08T10:59:29;22.00;;;19.75;;
28762;SDS011;15918;51.270;6.522;2024-03-08T11:01:55;22.42;;;20.20;;
28762;SDS011;15918;51.270;6.522;2024-03-08T11:04:21;21.80;;;19.48;;
28762;SDS011;15918;51.270;6.522;2024-03-08T11:06:48;21.13;;;18.92;;
28762;SDS011;15918;51.270;6.522;2024-03-08T11:09:28;21.15;;;19.13;;
28762;SDS011;15918;51.270;6.522;2024-03-08T11:12:22;21.88;;;19.48;;
28762;SDS011;15918;51.270;6.522;2024-03-08T11:14:55;20.63;;;18.60;;
28762;SDS011;15918;51.270;6.522;2024-03-08T11:19:56;20.27;;;18.27;;
28762;SDS011;15918;51.270;6.522;2024-03-08T11:22:27;19.67;;;17.65;;
28762;SDS011;15918;51.270;6.522;2024-03-08T11:24:59;18.50;;;16.60;;
28762;SDS011;15918;51.270;6.522;2024-03-08T11:27:30;19.73;;;17.63;;
28762;SDS011;15918;51.270;6.522;2024-03-08T11:30:00;19.85;;;17.30;;
28762;SDS011;15918;51.270;6.522;2024-03-08T11:32:35;19.48;;;17.05;;
28762;SDS011;15918;51.270;6.522;2024-03-08T11:35:02;18.27;;;16.48;;
28762;SDS011;15918;51.270;6.522;2024-03-08T11:37:32;17.65;;;15.85;;
28762;SDS011;15918;51.270;6.522;2024-03-08T11:39:59;17.65;;;15.75;;
28762;SDS011;15918;51.270;6.522;2024-03-08T11:42:26;17.60;;;15.80;;
28762;SDS011;15918;51.270;6.522;2024-03-08T11:44:52;16.95;;;15.13;;
28762;SDS011;15918;51.270;6.522;2024-03-08T11:47:18;18.40;;;16.02;;
28762;SDS011;15918;51.270;6.522;2024-03-08T11:49:45;17.30;;;15.60;;
28762;SDS011;15918;51.270;6.522;2024-03-08T11:52:16;22.90;;;16.08;;
28762;SDS011;15918;51.270;6.522;2024-03-08T11:54:48;19.30;;;15.25;;
28762;SDS011;15918;51.270;6.522;2024-03-08T11:57:24;21.10;;;16.73;;
28762;SDS011;15918;51.270;6.522;2024-03-08T11:59:53;16.45;;;14.70;;
28762;SDS011;15918;51.270;6.522;2024-03-08T12:02:21;16.35;;;14.73;;
28762;SDS011;15918;51.270;6.522;2024-03-08T12:04:50;16.63;;;14.82;;
28762;SDS011;15918;51.270;6.522;2024-03-08T12:07:25;18.02;;;15.48;;
28762;SDS011;15918;51.270;6.522;2024-03-08T12:12:46;17.45;;;15.65;;
28762;SDS011;15918;51.270;6.522;2024-03-08T12:15:17;18.33;;;16.42;;
28762;SDS011;15918;51.270;6.522;2024-03-08T12:17:45;16.80;;;15.13;;
28762;SDS011;15918;51.270;6.522;2024-03-08T12:22:56;17.58;;;14.98;;
28762;SDS011;15918;51.270;6.522;2024-03-08T12:25:22;17.40;;;15.07;;
28762;SDS011;15918;51.270;6.522;2024-03-08T12:27:51;16.88;;;15.13;;
28762;SDS011;15918;51.270;6.522;2024-03-08T12:32:59;16.83;;;15.10;;
28762;SDS011;15918;51.270;6.522;2024-03-08T12:35:29;16.70;;;14.80;;
28762;SDS011;15918;51.270;6.522;2024-03-08T12:37:56;17.40;;;15.60;;
28762;SDS011;15918;51.270;6.522;2024-03-08T12:40:30;18.48;;;15.23;;
28762;SDS011;15918;51.270;6.522;2024-03-08T12:43:00;17.10;;;15.35;;
28762;SDS011;15918;51.270;6.522;2024-03-08T12:45:31;17.65;;;15.93;;
28762;SDS011;15918;51.270;6.522;2024-03-08T12:47:57;16.73;;;14.95;;
28762;SDS011;15918;51.270;6.522;2024-03-08T12:50:24;18.05;;;16.15;;
28762;SDS011;15918;51.270;6.522;2024-03-08T12:52:50;17.42;;;15.63;;
28762;SDS011;15918;51.270;6.522;2024-03-08T12:55:17;15.73;;;14.23;;
28762;SDS011;15918;51.270;6.522;2024-03-08T12:57:43;15.95;;;14.35;;
28762;SDS011;15918;51.270;6.522;2024-03-08T13:00:10;15.65;;;14.05;;
28762;SDS011;15918;51.270;6.522;2024-03-08T13:02:43;16.70;;;14.90;;
28762;SDS011;15918;51.270;6.522;2024-03-08T13:05:12;16.13;;;14.43;;
28762;SDS011;15918;51.270;6.522;2024-03-08T13:07:39;16.02;;;14.32;;
28762;SDS011;15918;51.270;6.522;2024-03-08T13:10:10;15.40;;;13.77;;
28762;SDS011;15918;51.270;6.522;2024-03-08T13:12:43;16.92;;;15.23;;
28762;SDS011;15918;51.270;6.522;2024-03-08T13:15:09;17.10;;;15.00;;
28762;SDS011;15918;51.270;6.522;2024-03-08T13:17:45;15.18;;;13.68;;
28762;SDS011;15918;51.270;6.522;2024-03-08T13:20:12;18.70;;;16.63;;
28762;SDS011;15918;51.270;6.522;2024-03-08T13:22:42;17.20;;;15.40;;
28762;SDS011;15918;51.270;6.522;2024-03-08T13:25:08;15.93;;;14.32;;
28762;SDS011;15918;51.270;6.522;2024-03-08T13:27:38;17.15;;;15.35;;
28762;SDS011;15918;51.270;6.522;2024-03-08T13:30:06;17.00;;;14.75;;
28762;SDS011;15918;51.270;6.522;2024-03-08T13:32:32;17.05;;;15.35;;
28762;SDS011;15918;51.270;6.522;2024-03-08T13:34:58;18.20;;;16.00;;
28762;SDS011;15918;51.270;6.522;2024-03-08T13:37:23;16.63;;;14.95;;
28762;SDS011;15918;51.270;6.522;2024-03-08T13:39:52;18.08;;;14.50;;
28762;SDS011;15918;51.270;6.522;2024-03-08T13:42:18;16.38;;;14.68;;
28762;SDS011;15918;51.270;6.522;2024-03-08T13:44:48;16.45;;;14.77;;
28762;SDS011;15918;51.270;6.522;2024-03-08T13:47:17;15.88;;;14.30;;
28762;SDS011;15918;51.270;6.522;2024-03-08T13:49:43;16.73;;;14.93;;
28762;SDS011;15918;51.270;6.522;2024-03-08T13:52:10;16.27;;;14.48;;
28762;SDS011;15918;51.270;6.522;2024-03-08T13:54:37;16.10;;;14.38;;
28762;SDS011;15918;51.270;6.522;2024-03-08T13:57:03;17.35;;;15.55;;
28762;SDS011;15918;51.270;6.522;2024-03-08T13:59:30;16.02;;;14.32;;
28762;SDS011;15918;51.270;6.522;2024-03-08T14:01:57;16.67;;;14.95;;
28762;SDS011;15918;51.270;6.522;2024-03-08T14:04:24;15.38;;;13.57;;
28762;SDS011;15918;51.270;6.522;2024-03-08T14:06:51;16.08;;;13.82;;
28762;SDS011;15918;51.270;6.522;2024-03-08T14:09:21;14.63;;;13.10;;
28762;SDS011;15918;51.270;6.522;2024-03-08T14:11:49;13.52;;;12.23;;
28762;SDS011;15918;51.270;6.522;2024-03-08T14:14:21;14.38;;;12.98;;
28762;SDS011;15918;51.270;6.522;2024-03-08T14:16:48;16.05;;;14.45;;
28762;SDS011;15918;51.270;6.522;2024-03-08T14:19:17;16.90;;;14.82;;
28762;SDS011;15918;51.270;6.522;2024-03-08T14:21:44;15.60;;;13.93;;
28762;SDS011;15918;51.270;6.522;2024-03-08T14:24:09;16.25;;;14.68;;
28762;SDS011;15918;51.270;6.522;2024-03-08T14:26:35;16.77;;;14.48;;
28762;SDS011;15918;51.270;6.522;2024-03-08T14:29:03;15.00;;;13.48;;
28762;SDS011;15918;51.270;6.522;2024-03-08T14:31:30;17.65;;;15.10;;
28762;SDS011;15918;51.270;6.522;2024-03-08T14:33:56;15.60;;;14.02;;
28762;SDS011;15918;51.270;6.522;2024-03-08T14:36:24;14.68;;;13.15;;
28762;SDS011;15918;51.270;6.522;2024-03-08T14:38:50;14.40;;;12.68;;
28762;SDS011;15918;51.270;6.522;2024-03-08T14:41:17;16.02;;;14.32;;